createdAt,value
2022-08-04T00:03:16.530Z,99972.66
2022-08-04T00:08:45.817Z,99970.84
2022-08-04T00:14:00.424Z,99961.19
2022-08-04T00:19:12.542Z,99956.16
2022-08-04T00:24:16.320Z,99957.44
2022-08-04T00:29:17.969Z,99960.66
2022-08-04T00:34:19.706Z,99972.47
2022-08-04T00:39:22.615Z,99973.31
2022-08-04T00:44:42.969Z,99965.09
2022-08-04T00:49:55.259Z,99974.03
2022-08-04T00:55:06.909Z,99979.09
2022-08-04T01:00:15.672Z,99978.72
2022-08-04T01:05:54.518Z,99985.38
2022-08-04T01:11:11.045Z,99986.22
2022-08-04T01:16:17.000Z,99998.00
2022-08-04T01:21:30.560Z,99998.66
2022-08-04T01:26:58.012Z,99994.56
2022-08-04T01:32:03.729Z,99995.91
2022-08-04T01:37:13.943Z,99988.69
2022-08-04T01:42:31.863Z,99992.75
2022-08-04T01:47:40.236Z,99989.19
2022-08-04T01:52:46.503Z,99989.47
2022-08-04T01:57:53.289Z,99988.44
2022-08-04T02:02:56.746Z,99990.63
2022-08-04T02:08:07.595Z,99993.47
2022-08-04T02:13:49.925Z,99990.75
2022-08-04T02:19:06.681Z,99986.75
2022-08-04T02:24:22.548Z,99989.31
2022-08-04T02:29:35.242Z,99984.63
2022-08-04T02:34:48.797Z,99982.66
2022-08-04T02:39:54.162Z,99986.75
2022-08-04T02:44:58.688Z,99982.91
2022-08-04T02:50:02.314Z,99988.47
2022-08-04T02:55:09.239Z,99981.31
2022-08-04T03:00:14.753Z,99986.63
2022-08-04T03:05:24.537Z,99991.81
2022-08-04T03:11:03.776Z,99992.28
2022-08-04T03:16:38.743Z,99992.25
2022-08-04T03:21:58.807Z,99993.25
2022-08-04T03:27:34.382Z,99999.47
2022-08-04T03:33:07.697Z,99999.00
2022-08-04T03:38:34.161Z,100003.25
2022-08-04T03:44:22.338Z,100001.34
2022-08-04T03:49:40.817Z,99996.03
2022-08-04T03:55:01.678Z,100003.69
2022-08-04T04:00:21.217Z,100008.19
2022-08-04T04:06:00.238Z,100007.59
2022-08-04T04:11:35.382Z,100013.09
2022-08-04T04:17:09.223Z,100010.00
2022-08-04T04:22:22.843Z,100013.72
2022-08-04T04:27:39.078Z,100018.97
2022-08-04T04:32:59.742Z,100012.59
2022-08-04T04:38:19.740Z,100015.88
2022-08-04T04:43:51.792Z,100012.03
2022-08-04T04:49:07.424Z,100022.31
2022-08-04T04:54:23.457Z,100019.66
2022-08-04T04:59:34.705Z,100030.00
2022-08-04T05:04:51.162Z,100028.38
2022-08-04T05:10:30.507Z,100021.59
2022-08-04T05:15:35.590Z,100034.22
2022-08-04T05:20:45.459Z,100032.56
2022-08-04T05:25:59.354Z,100033.53
2022-08-04T05:31:07.221Z,100028.81
2022-08-04T05:36:23.413Z,100032.41
2022-08-04T05:41:32.323Z,100034.59
2022-08-04T05:46:54.082Z,100039.84
2022-08-04T05:52:00.944Z,100033.19
2022-08-04T05:57:06.355Z,100032.34
2022-08-04T06:02:09.595Z,100022.22
2022-08-04T06:07:11.603Z,100029.69
2022-08-04T06:12:21.075Z,100030.06
2022-08-04T06:18:35.447Z,100023.03
2022-08-04T06:22:56.210Z,100023.31
2022-08-04T06:27:58.683Z,100022.56
2022-08-04T06:33:05.228Z,100024.19
2022-08-04T06:38:08.657Z,100022.03
2022-08-04T06:43:11.527Z,100029.81
2022-08-04T06:48:16.182Z,100023.34
2022-08-04T06:53:18.620Z,100027.28
2022-08-04T06:58:21.942Z,100021.22
2022-08-04T07:03:24.021Z,100018.88
2022-08-04T07:08:25.726Z,100018.09
2022-08-04T07:13:27.876Z,100019.94
2022-08-04T07:18:31.978Z,100017.03
2022-08-04T07:23:33.858Z,100013.84
2022-08-04T07:28:35.399Z,100011.91
2022-08-04T07:33:38.029Z,100013.63
2022-08-04T07:38:48.756Z,100010.59
2022-08-04T07:43:54.966Z,100024.13
2022-08-04T07:48:58.405Z,100014.16
2022-08-04T07:54:00.887Z,100025.31
2022-08-04T07:59:03.449Z,100025.84
2022-08-04T08:04:10.186Z,100023.63
2022-08-04T08:09:14.770Z,100014.97
2022-08-04T08:14:18.102Z,100010.59
2022-08-04T08:19:20.654Z,100010.34
2022-08-04T08:24:22.465Z,100009.06
2022-08-04T08:29:29.466Z,100003.81
2022-08-04T08:34:32.421Z,100006.19
2022-08-04T08:39:55.444Z,100011.66
2022-08-04T08:45:24.512Z,100013.56
2022-08-04T08:50:56.503Z,100008.25
2022-08-04T08:56:30.916Z,100003.47
2022-08-04T09:01:33.264Z,100001.59
2022-08-04T09:06:58.002Z,100002.81
2022-08-04T09:12:25.807Z,99998.75
2022-08-04T09:17:33.340Z,99998.59
2022-08-04T09:22:48.053Z,99994.84
2022-08-04T09:27:59.848Z,99992.78
2022-08-04T09:33:18.200Z,99990.25
2022-08-04T09:38:51.610Z,99983.31
2022-08-04T09:44:50.547Z,99985.66
2022-08-04T09:50:14.628Z,99983.69
2022-08-04T09:55:54.463Z,99980.25
2022-08-04T10:01:02.996Z,99976.25
2022-08-04T10:06:08.821Z,99969.56
2022-08-04T10:11:55.555Z,99958.97
2022-08-04T10:17:27.623Z,99957.47
2022-08-04T10:22:55.584Z,99956.88
2022-08-04T10:28:10.325Z,99945.34
2022-08-04T10:33:28.959Z,99941.59
2022-08-04T10:38:32.459Z,99944.28
2022-08-04T10:43:57.238Z,99935.88
2022-08-04T10:49:10.262Z,99937.56
2022-08-04T10:54:18.710Z,99930.59
2022-08-04T10:59:45.718Z,99939.38
2022-08-04T11:05:26.418Z,99932.69
2022-08-04T11:10:34.554Z,99932.38
2022-08-04T11:15:51.396Z,99923.72
2022-08-04T11:21:07.979Z,99920.00
2022-08-04T11:26:22.494Z,99924.75
2022-08-04T11:31:29.785Z,99918.09
2022-08-04T11:36:51.424Z,99919.00
2022-08-04T11:42:04.933Z,99907.97
2022-08-04T11:47:22.259Z,99909.81
2022-08-04T11:52:26.349Z,99918.06
2022-08-04T11:57:35.923Z,99910.03
2022-08-04T12:02:49.824Z,99907.13
2022-08-04T12:08:19.676Z,99896.03
2022-08-04T12:13:46.288Z,99894.13
2022-08-04T12:19:03.099Z,99896.00
2022-08-04T12:24:21.837Z,99892.97
2022-08-04T12:29:29.532Z,99894.28
2022-08-04T12:34:35.139Z,99887.25
2022-08-04T12:40:21.617Z,99884.38
2022-08-04T12:45:10.636Z,99879.41
2022-08-04T12:50:16.042Z,99883.72
2022-08-04T12:55:21.130Z,99882.66
2022-08-04T13:00:39.665Z,99873.56
2022-08-04T13:05:44.838Z,99864.34
2022-08-04T13:10:50.646Z,99870.03
2022-08-04T13:16:02.948Z,99853.22
2022-08-04T13:21:21.178Z,99850.72
2022-08-04T13:26:43.022Z,99843.63
2022-08-04T13:31:52.526Z,99833.59
2022-08-04T13:36:56.242Z,99822.41
2022-08-04T13:42:02.377Z,99826.97
2022-08-04T13:47:16.693Z,99808.00
2022-08-04T13:52:21.731Z,99805.28
2022-08-04T13:57:30.505Z,99809.19
2022-08-04T14:02:39.978Z,99802.81
2022-08-04T14:07:47.021Z,99800.56
2022-08-04T14:12:52.449Z,99794.97
2022-08-04T14:17:54.527Z,99793.72
2022-08-04T14:23:02.221Z,99779.34
2022-08-04T14:28:04.522Z,99777.69
2022-08-04T14:34:01.505Z,99772.97
2022-08-04T14:38:46.370Z,99775.00
2022-08-04T14:43:54.991Z,99766.91
2022-08-04T14:49:10.467Z,99761.75
2022-08-04T14:54:18.988Z,99760.19
2022-08-04T14:59:22.583Z,99756.88
2022-08-04T15:04:26.341Z,99758.69
2022-08-04T15:09:29.001Z,99749.31
2022-08-04T15:14:37.482Z,99748.31
2022-08-04T15:19:39.939Z,99745.13
2022-08-04T15:24:41.396Z,99741.53
2022-08-04T15:30:00.757Z,99756.56
2022-08-04T15:35:09.841Z,99756.28
2022-08-04T15:40:37.064Z,99744.09
2022-08-04T15:46:41.202Z,99752.72
2022-08-04T15:51:15.172Z,99738.47
2022-08-04T15:56:43.363Z,99733.28
2022-08-04T16:02:29.825Z,99734.09
2022-08-04T16:08:10.069Z,99720.69
2022-08-04T16:13:16.849Z,99717.56
2022-08-04T16:18:30.321Z,99717.00
2022-08-04T16:23:59.308Z,99707.16
2022-08-04T16:29:04.110Z,99710.22
2022-08-04T16:34:47.939Z,99708.56
2022-08-04T16:39:27.568Z,99700.91
2022-08-04T16:44:52.163Z,99699.72
2022-08-04T16:50:02.194Z,99693.63
2022-08-04T16:55:04.041Z,99692.13
2022-08-04T17:00:07.364Z,99699.84
2022-08-04T17:05:39.456Z,99696.53
2022-08-04T17:10:44.178Z,99703.53
2022-08-04T17:15:49.761Z,99694.59
2022-08-04T17:21:01.148Z,99693.38
2022-08-04T17:26:20.567Z,99701.72
2022-08-04T17:31:24.828Z,99688.47
2022-08-04T17:36:28.987Z,99685.31
2022-08-04T17:41:39.041Z,99692.28
2022-08-04T17:46:48.771Z,99686.66
2022-08-04T17:52:05.005Z,99689.22
2022-08-04T17:57:19.474Z,99683.72
2022-08-04T18:02:34.848Z,99695.50
2022-08-04T18:08:39.480Z,99696.53
2022-08-04T18:13:13.882Z,99699.63
2022-08-04T18:18:23.632Z,99716.34
2022-08-04T18:23:31.983Z,99705.88
2022-08-04T18:28:34.881Z,99711.84
2022-08-04T18:33:39.776Z,99723.50
2022-08-04T18:38:55.399Z,99727.69
2022-08-04T18:43:57.759Z,99719.41
2022-08-04T18:49:01.542Z,99720.41
2022-08-04T18:54:03.555Z,99718.56
2022-08-04T18:59:10.162Z,99726.00
2022-08-04T19:04:33.336Z,99736.25
2022-08-04T19:09:51.326Z,99742.13
2022-08-04T19:14:58.344Z,99743.78
2022-08-04T19:20:00.619Z,99752.91
2022-08-04T19:25:02.099Z,99751.63
2022-08-04T19:30:04.327Z,99759.28
2022-08-04T19:35:06.619Z,99758.78
2022-08-04T19:40:15.303Z,99768.63
2022-08-04T19:45:17.153Z,99775.66
2022-08-04T19:50:18.748Z,99774.31
2022-08-04T19:55:36.748Z,99774.56
2022-08-04T20:00:40.633Z,99782.75
2022-08-04T20:05:53.418Z,99785.00
2022-08-04T20:10:57.923Z,99783.25
2022-08-04T20:15:59.510Z,99786.44
2022-08-04T20:21:01.006Z,99785.78
2022-08-04T20:26:02.659Z,99792.41
2022-08-04T20:31:04.182Z,99791.91
2022-08-04T20:36:06.761Z,99815.97
2022-08-04T20:41:08.407Z,99822.72
2022-08-04T20:46:17.831Z,99818.63
2022-08-04T20:51:25.903Z,99814.09
2022-08-04T20:56:33.220Z,99820.00
2022-08-04T21:01:34.862Z,99816.81
2022-08-04T21:06:36.667Z,99811.00
2022-08-04T21:11:38.194Z,99808.66
2022-08-04T21:16:55.782Z,99818.63
2022-08-04T21:21:58.090Z,99820.59
2022-08-04T21:27:01.879Z,99820.59
2022-08-04T21:32:06.001Z,99819.44
2022-08-04T21:37:11.236Z,99828.63
2022-08-04T21:42:30.565Z,99831.72
2022-08-04T21:47:46.716Z,99823.53
2022-08-04T21:52:51.043Z,99820.22
2022-08-04T21:57:54.107Z,99821.59
2022-08-04T22:02:55.699Z,99820.47
2022-08-04T22:07:57.151Z,99823.91
2022-08-04T22:12:58.846Z,99819.00
2022-08-04T22:18:04.517Z,99814.78
2022-08-04T22:23:16.655Z,99813.84
2022-08-04T22:28:18.812Z,99805.19
2022-08-04T22:33:20.408Z,99809.16
2022-08-04T22:38:38.485Z,99816.81
2022-08-04T22:43:46.474Z,99820.41
2022-08-04T22:48:57.065Z,99826.44
2022-08-04T22:54:00.365Z,99830.84
2022-08-04T22:59:03.178Z,99847.25
2022-08-04T23:04:04.815Z,99861.41
2022-08-04T23:09:06.265Z,99849.47
2022-08-04T23:14:17.497Z,99851.50
2022-08-04T23:19:19.498Z,99855.53
2022-08-04T23:24:29.848Z,99863.53
2022-08-04T23:29:54.422Z,99867.13
2022-08-04T23:34:53.049Z,99869.75
2022-08-04T23:40:15.779Z,99882.28
2022-08-04T23:45:15.987Z,99893.63
2022-08-04T23:50:37.416Z,99909.25
2022-08-04T23:55:40.667Z,99906.47
